San Lorenzo, Argentina
Current Conditions -  °F | °C
As of 7:00 AM on Sunday 21 Dec 2014 (Local Time) from SAAR Reporting Station
Overcast Overcast  
Wind Chill: 61°   Ceiling: 10000
Heat Index: 61°   Visibility: 6mi
Dew Point: 52°   Wind: 14mph
Humidity: 72%   Direction: 160°SSE
Pressure: 29.77"   Gusts: NA
Location:  32.75°S, 60.73°W
Report Text: SAAR 211000Z 16012KT 9999 SCT045 OVC10016/11 Q1008
Loading
Personal Weather Stations






























Interactive Weather Map New forecast layout! Learn more

10-Day Weather Forecast

Advertisements
Track Severe Weather on mobile